Weather Data

Pearl Creek Farm: 8878 N Farm Road 75, Walnut Grove MO 65770

<== Previous Day (Saturday 12 Jan 2008) | Next Day (Monday 14 Jan 2008) ==>

Summary Precipitation Data For Sunday 13 January 2008

ElementValueUnits
Precipitation0"
Notes(none)
SourceSpringfield-Branson National Airport (SGF)

Summary Temperature Data For Sunday 13 January 2008

ElementValueUnits
High Temperature33 oF
Low Temperature24 oF
Average Temperature27 oF
High Humidity81 %
Low Humidity56 %
Average Humidity74 %
SourceSpringfield-Branson National Airport (SGF)

Detail Temperature Data For Sunday 13 January 2008

Date / TimeTemp (F)RH (%)Dew Pt (F)Report Date / TimeSource
2008-01-13 02:52:00 27 78 21.0 2017-12-29 19:14:24.89625 Springfield-Branson National Airport (SGF)
2008-01-13 00:52:00 28 81 23.0 2017-12-29 19:14:24.89625 Springfield-Branson National Airport (SGF)
2008-01-13 01:52:00 27 81 22.0 2017-12-29 19:14:24.89625 Springfield-Branson National Airport (SGF)
2008-01-13 03:52:00 26 81 21.0 2017-12-29 19:14:24.89625 Springfield-Branson National Airport (SGF)
2008-01-13 04:52:00 26 81 21.0 2017-12-29 19:14:24.89625 Springfield-Branson National Airport (SGF)
2008-01-13 05:52:00 26 78 20.0 2017-12-29 19:14:24.89625 Springfield-Branson National Airport (SGF)
2008-01-13 06:52:00 25 81 20.0 2017-12-29 19:14:24.89625 Springfield-Branson National Airport (SGF)
2008-01-13 07:52:00 24 81 19.0 2017-12-29 19:14:24.89625 Springfield-Branson National Airport (SGF)
2008-01-13 08:52:00 25 78 19.0 2017-12-29 19:14:24.89625 Springfield-Branson National Airport (SGF)
2008-01-13 09:52:00 26 71 18.0 2017-12-29 19:14:24.89625 Springfield-Branson National Airport (SGF)
2008-01-13 10:52:00 26 69 17.0 2017-12-29 19:14:24.89625 Springfield-Branson National Airport (SGF)
2008-01-13 11:52:00 27 66 17.0 2017-12-29 19:14:24.89625 Springfield-Branson National Airport (SGF)
2008-01-13 12:52:00 30 64 19.0 2017-12-29 19:14:24.89625 Springfield-Branson National Airport (SGF)
2008-01-13 14:52:00 32 59 19.0 2017-12-29 19:14:24.89625 Springfield-Branson National Airport (SGF)
2008-01-13 15:52:00 33 56 19.0 2017-12-29 19:14:24.89625 Springfield-Branson National Airport (SGF)
2008-01-13 16:52:00 32 61 20.0 2017-12-29 19:14:24.89625 Springfield-Branson National Airport (SGF)
2008-01-13 17:52:00 29 69 20.0 2017-12-29 19:14:24.89625 Springfield-Branson National Airport (SGF)
2008-01-13 18:52:00 26 78 20.0 2017-12-29 19:14:24.89625 Springfield-Branson National Airport (SGF)
2008-01-13 19:52:00 24 81 19.0 2017-12-29 19:14:24.89625 Springfield-Branson National Airport (SGF)
2008-01-13 20:52:00 24 77 18.0 2017-12-29 19:14:24.89625 Springfield-Branson National Airport (SGF)
2008-01-13 21:52:00 25 78 19.0 2017-12-29 19:14:24.89625 Springfield-Branson National Airport (SGF)
2008-01-13 22:52:00 25 81 20.0 2017-12-29 19:14:24.89625 Springfield-Branson National Airport (SGF)
2008-01-13 23:52:00 30 75 23.0 2017-12-29 19:14:24.89625 Springfield-Branson National Airport (SGF)

A total of 23 rows are displayed.